Time;durP1;ratioP1;P1;durP2;ratioP2;P2;SDS_P1;SDS_P2;PMS_P1;PMS_P2;Temp;Humidity;BMP_temperature;BMP_pressure;BME280_temperature;BME280_humidity;BME280_pressure;Samples;Min_cycle;Max_cycle;Signal;HPM_P1;HPM_P2
2023/12/15 00:00:06;;;;;;;1.38;0.88;;;4.60;99.90;;;;;;5006554;28;20200;-79
2023/12/15 00:02:33;;;;;;;1.52;1.42;;;4.70;99.90;;;;;;5004183;28;20592;-78
2023/12/15 00:05:00;;;;;;;1.48;1.48;;;4.70;99.90;;;;;;5005441;28;20657;-78
2023/12/15 00:07:26;;;;;;;0.50;0.40;;;4.70;99.90;;;;;;5008113;28;20599;-79
2023/12/15 00:09:53;;;;;;;3.85;3.50;;;4.70;99.90;;;;;;5007633;28;20215;-79
2023/12/15 00:12:20;;;;;;;4.03;2.95;;;4.80;99.90;;;;;;5005066;28;20213;-79
2023/12/15 00:14:46;;;;;;;1.30;1.30;;;4.80;99.90;;;;;;5005334;28;20208;-79
2023/12/15 00:17:15;;;;;;;1.38;1.15;;;4.80;99.90;;;;;;5007390;28;20201;-79
2023/12/15 00:19:41;;;;;;;11.05;4.25;;;4.80;99.90;;;;;;5007936;28;20200;-79
2023/12/15 00:22:08;;;;;;;2.83;1.75;;;4.80;99.90;;;;;;5005427;28;20647;-79
2023/12/15 00:24:35;;;;;;;6.80;2.83;;;4.80;99.90;;;;;;5004366;28;20208;-79
2023/12/15 00:27:02;;;;;;;0.70;0.70;;;4.90;99.90;;;;;;5005351;28;20201;-79
2023/12/15 00:29:28;;;;;;;4.20;2.38;;;4.90;99.90;;;;;;5008035;28;20200;-79
2023/12/15 00:31:55;;;;;;;4.07;3.70;;;4.90;99.90;;;;;;5007686;28;20206;-79
2023/12/15 00:34:23;;;;;;;5.47;3.15;;;4.90;99.90;;;;;;5003670;28;20201;-79
2023/12/15 00:36:50;;;;;;;1.38;1.27;;;4.90;99.90;;;;;;5004482;28;20201;-79
2023/12/15 00:39:17;;;;;;;0.98;0.98;;;4.90;99.90;;;;;;5007662;28;20200;-79
2023/12/15 00:41:43;;;;;;;1.88;1.77;;;4.90;99.90;;;;;;5007639;28;20216;-79
2023/12/15 00:44:10;;;;;;;2.35;1.65;;;4.90;99.90;;;;;;5005081;28;20223;-80
2023/12/15 00:46:37;;;;;;;4.50;4.20;;;5.00;99.90;;;;;;5003992;28;20205;-79
2023/12/15 00:49:04;;;;;;;2.25;1.70;;;5.00;99.90;;;;;;5005294;28;20212;-79
2023/12/15 00:51:32;;;;;;;5.18;2.97;;;5.00;99.90;;;;;;5010286;28;20208;-79
2023/12/15 00:53:59;;;;;;;3.10;2.80;;;5.00;99.90;;;;;;5003617;28;20308;-79
2023/12/15 00:56:25;;;;;;;3.65;1.42;;;5.00;99.90;;;;;;5007107;28;20563;-79
2023/12/15 00:58:52;;;;;;;2.90;2.35;;;5.00;99.90;;;;;;5006591;28;20579;-79
2023/12/15 01:01:19;;;;;;;14.35;3.80;;;5.00;99.90;;;;;;5003130;28;20200;-81
2023/12/15 01:03:46;;;;;;;2.22;2.08;;;5.00;99.90;;;;;;5003178;28;20603;-80
2023/12/15 01:06:12;;;;;;;1.55;1.45;;;5.00;99.90;;;;;;5004441;28;20201;-80
2023/12/15 01:08:41;;;;;;;8.85;4.45;;;5.10;99.90;;;;;;5006460;28;20201;-79
2023/12/15 01:11:08;;;;;;;4.88;4.68;;;5.10;99.90;;;;;;5004130;28;20206;-80
2023/12/15 01:13:35;;;;;;;12.27;3.60;;;5.10;99.90;;;;;;5003437;28;20314;-79
2023/12/15 01:16:05;;;;;;;4.97;4.57;;;5.10;99.90;;;;;;5002632;28;20201;-78
2023/12/15 01:18:32;;;;;;;2.78;2.63;;;5.20;99.90;;;;;;5006773;28;20204;-80
2023/12/15 01:20:58;;;;;;;0.47;0.40;;;5.20;99.90;;;;;;5006431;28;20572;-80
2023/12/15 01:23:25;;;;;;;0.95;0.95;;;5.20;99.90;;;;;;5002692;28;20616;-80
2023/12/15 01:25:53;;;;;;;14.55;2.38;;;5.20;99.90;;;;;;5001731;28;20282;-79
2023/12/15 01:28:20;;;;;;;3.70;2.13;;;5.20;99.90;;;;;;5002564;28;20201;-79
2023/12/15 01:30:47;;;;;;;1.50;1.40;;;5.20;99.90;;;;;;5002392;28;20197;-79
2023/12/15 01:33:14;;;;;;;2.78;1.52;;;5.30;99.90;;;;;;5003722;28;20599;-80
2023/12/15 01:35:41;;;;;;;4.10;3.70;;;5.30;99.90;;;;;;5005205;28;20203;-79
2023/12/15 01:38:07;;;;;;;2.38;2.17;;;5.30;99.90;;;;;;5004400;28;20201;-79
2023/12/15 01:40:34;;;;;;;3.08;2.67;;;5.30;99.90;;;;;;5002881;28;20204;-79
2023/12/15 01:43:03;;;;;;;0.88;0.88;;;5.30;99.90;;;;;;5002311;28;20221;-79
2023/12/15 01:45:29;;;;;;;4.35;3.17;;;5.30;99.90;;;;;;5005261;28;20206;-79
2023/12/15 01:47:57;;;;;;;1.60;1.45;;;5.30;99.90;;;;;;5005865;28;20219;-79
2023/12/15 01:50:24;;;;;;;1.85;1.58;;;5.30;99.90;;;;;;5002456;28;20201;-78
2023/12/15 01:52:50;;;;;;;0.50;0.50;;;5.30;99.90;;;;;;5002613;28;20752;-79
2023/12/15 01:55:17;;;;;;;0.40;0.40;;;5.30;99.90;;;;;;5012409;28;20298;-80
2023/12/15 01:57:44;;;;;;;1.63;1.52;;;5.30;99.90;;;;;;5010729;28;20570;-81
2023/12/15 02:00:13;;;;;;;3.20;2.33;;;5.30;99.90;;;;;;5006897;28;20200;-81
2023/12/15 02:02:40;;;;;;;0.95;0.85;;;5.30;99.90;;;;;;5004486;28;20311;-81
2023/12/15 02:05:07;;;;;;;2.60;2.17;;;5.30;99.90;;;;;;5003223;28;20279;-79
2023/12/15 02:07:34;;;;;;;4.47;4.18;;;5.30;99.90;;;;;;4998321;28;20212;-79
2023/12/15 02:10:01;;;;;;;3.15;2.95;;;5.30;99.90;;;;;;5005087;28;20197;-79
2023/12/15 02:12:28;;;;;;;3.50;3.20;;;5.30;99.90;;;;;;5001588;28;20209;-79
2023/12/15 02:14:54;;;;;;;5.00;2.72;;;5.30;99.90;;;;;;5001480;28;20201;-79
2023/12/15 02:17:22;;;;;;;5.78;5.20;;;5.30;99.90;;;;;;5004404;28;20203;-79
2023/12/15 02:19:49;;;;;;;2.35;2.25;;;5.40;99.90;;;;;;5007125;28;20208;-80
2023/12/15 02:22:16;;;;;;;1.48;1.48;;;5.30;99.90;;;;;;5004886;28;20233;-80
2023/12/15 02:24:44;;;;;;;1.83;1.67;;;5.40;99.90;;;;;;5008556;28;20196;-79
2023/12/15 02:27:11;;;;;;;7.38;3.13;;;5.40;99.90;;;;;;5008590;28;20196;-78
2023/12/15 02:29:38;;;;;;;4.72;1.80;;;5.40;99.90;;;;;;5009162;28;20200;-80
2023/12/15 02:32:05;;;;;;;3.78;3.17;;;5.40;99.90;;;;;;5009436;28;20196;-80
2023/12/15 02:34:32;;;;;;;3.28;1.92;;;5.40;99.90;;;;;;5005174;28;20206;-80
2023/12/15 02:36:59;;;;;;;4.90;3.05;;;5.40;99.90;;;;;;5005405;28;20201;-80
2023/12/15 02:39:25;;;;;;;3.70;3.40;;;5.40;99.90;;;;;;5013201;28;20210;-80
2023/12/15 02:41:53;;;;;;;1.50;1.42;;;5.40;99.90;;;;;;5005571;28;20190;-80
2023/12/15 02:44:20;;;;;;;2.58;2.33;;;5.40;99.90;;;;;;5008824;28;20599;-79
2023/12/15 02:46:47;;;;;;;2.10;1.27;;;5.40;99.90;;;;;;5009713;28;20192;-79
2023/12/15 02:49:14;;;;;;;5.25;4.43;;;5.30;99.90;;;;;;5007903;28;20767;-80
2023/12/15 02:51:41;;;;;;;3.00;2.78;;;5.30;99.90;;;;;;5008056;28;20197;-79
2023/12/15 02:54:08;;;;;;;4.22;3.15;;;5.30;99.90;;;;;;5007278;28;20212;-78
2023/12/15 02:56:34;;;;;;;0.60;0.60;;;5.30;99.90;;;;;;5004330;28;20208;-80
2023/12/15 02:59:03;;;;;;;4.13;3.83;;;5.30;99.90;;;;;;5004785;28;20203;-79
2023/12/15 03:01:30;;;;;;;2.38;2.17;;;5.30;99.90;;;;;;5007045;28;20204;-80
2023/12/15 03:03:56;;;;;;;2.22;2.13;;;5.40;99.90;;;;;;5006747;28;20691;-80
2023/12/15 03:06:23;;;;;;;3.92;3.67;;;5.40;99.90;;;;;;5004368;28;20197;-79
2023/12/15 03:08:50;;;;;;;1.77;1.67;;;5.40;99.90;;;;;;5003828;28;20300;-80
2023/12/15 03:11:18;;;;;;;6.80;4.45;;;5.40;99.90;;;;;;5011745;28;20197;-79
2023/12/15 03:13:44;;;;;;;7.03;4.20;;;5.40;99.90;;;;;;5003639;28;20217;-79
2023/12/15 03:16:13;;;;;;;2.65;2.55;;;5.40;99.90;;;;;;5003432;28;20204;-79
2023/12/15 03:18:40;;;;;;;15.40;4.65;;;5.40;99.90;;;;;;5007251;28;20207;-79
2023/12/15 03:21:07;;;;;;;0.93;0.85;;;5.40;99.90;;;;;;5006732;28;20200;-79
2023/12/15 03:23:34;;;;;;;1.13;1.08;;;5.40;99.90;;;;;;5003142;28;20225;-79
2023/12/15 03:26:01;;;;;;;1.58;1.25;;;5.50;99.90;;;;;;5003547;28;20682;-79
2023/12/15 03:28:27;;;;;;;3.70;2.63;;;5.50;99.90;;;;;;5005604;28;20201;-79
2023/12/15 03:30:54;;;;;;;14.75;8.10;;;5.50;99.90;;;;;;5006358;28;20203;-78
2023/12/15 03:33:25;;;;;;;12.40;3.38;;;5.40;99.90;;;;;;5004150;28;20212;-79
2023/12/15 03:35:51;;;;;;;6.20;3.33;;;5.50;99.90;;;;;;5008259;28;20200;-79
2023/12/15 03:38:19;;;;;;;6.80;5.97;;;5.50;99.90;;;;;;5004818;28;20574;-79
2023/12/15 03:40:46;;;;;;;5.28;3.10;;;5.50;99.90;;;;;;5002501;28;20205;-79
2023/12/15 03:43:13;;;;;;;2.42;2.33;;;5.50;99.90;;;;;;5002397;28;20221;-78
2023/12/15 03:45:40;;;;;;;3.45;3.15;;;5.50;99.90;;;;;;5005512;28;20200;-79
2023/12/15 03:48:06;;;;;;;1.45;1.35;;;5.50;99.90;;;;;;5006113;28;20208;-76
2023/12/15 03:50:35;;;;;;;9.55;2.95;;;5.50;99.90;;;;;;5003091;28;20268;-79
2023/12/15 03:53:01;;;;;;;1.67;1.48;;;5.60;99.90;;;;;;5002666;28;20585;-78
2023/12/15 03:55:28;;;;;;;4.43;1.75;;;5.60;99.90;;;;;;5003991;28;20208;-80
2023/12/15 03:57:55;;;;;;;2.67;1.05;;;5.60;99.90;;;;;;5006491;28;20201;-79
2023/12/15 04:00:22;;;;;;;2.50;1.95;;;5.60;99.90;;;;;;5004746;28;20211;-79
2023/12/15 04:02:49;;;;;;;6.47;1.40;;;5.60;99.90;;;;;;5003226;28;20247;-80
2023/12/15 04:05:16;;;;;;;1.45;1.45;;;5.60;99.90;;;;;;5002845;28;20253;-80
2023/12/15 04:07:44;;;;;;;1.35;0.80;;;5.50;99.90;;;;;;5006477;28;20192;-80
2023/12/15 04:10:11;;;;;;;3.35;3.10;;;5.50;99.90;;;;;;5006412;28;20576;-78
2023/12/15 04:12:38;;;;;;;1.73;1.63;;;5.50;99.90;;;;;;5002734;28;20224;-81
2023/12/15 04:15:08;;;;;;;2.15;1.05;;;5.60;99.90;;;;;;5002455;28;20193;-78
2023/12/15 04:17:35;;;;;;;0.50;0.50;;;5.60;99.90;;;;;;5005354;28;20244;-81
2023/12/15 04:20:02;;;;;;;1.65;1.42;;;5.50;99.90;;;;;;5006288;28;20200;-80
2023/12/15 04:22:28;;;;;;;1.70;1.30;;;5.50;99.90;;;;;;5005696;28;20220;-81
2023/12/15 04:24:56;;;;;;;5.05;1.73;;;5.50;99.90;;;;;;5005821;28;20559;-80
2023/12/15 04:27:23;;;;;;;0.88;0.85;;;5.50;99.90;;;;;;5004809;28;20232;-80
2023/12/15 04:29:50;;;;;;;4.68;3.03;;;5.60;99.90;;;;;;5002725;28;20192;-81
2023/12/15 04:32:17;;;;;;;3.70;1.98;;;5.60;99.90;;;;;;5002419;28;20296;-78
2023/12/15 04:34:44;;;;;;;4.22;3.83;;;5.60;99.90;;;;;;5001803;28;20194;-80
2023/12/15 04:37:10;;;;;;;2.75;1.73;;;5.60;99.90;;;;;;5002405;28;20198;-79
2023/12/15 04:39:37;;;;;;;5.20;2.15;;;5.60;99.90;;;;;;5004900;28;20208;-80
2023/12/15 04:42:06;;;;;;;3.03;2.83;;;5.60;99.90;;;;;;5005470;28;20196;-80
2023/12/15 04:44:33;;;;;;;0.70;0.70;;;5.60;99.90;;;;;;4999031;28;20227;-81
2023/12/15 04:46:59;;;;;;;0.50;0.50;;;5.60;99.90;;;;;;5005387;28;20197;-79
2023/12/15 04:49:26;;;;;;;2.10;1.40;;;5.60;99.90;;;;;;5004381;28;20214;-80
2023/12/15 04:51:53;;;;;;;3.75;3.45;;;5.70;99.90;;;;;;5002395;28;20193;-80
2023/12/15 04:54:20;;;;;;;1.60;1.50;;;5.60;99.90;;;;;;5001908;28;20222;-80
2023/12/15 04:56:46;;;;;;;1.05;0.75;;;5.70;99.90;;;;;;5005320;28;20203;-80
2023/12/15 04:59:14;;;;;;;1.95;1.90;;;5.70;99.90;;;;;;5005257;28;20606;-79
2023/12/15 05:01:43;;;;;;;2.67;2.38;;;5.70;99.90;;;;;;5009156;28;20198;-81
2023/12/15 05:04:10;;;;;;;1.73;1.65;;;5.70;99.90;;;;;;5013030;28;20595;-82
2023/12/15 05:06:37;;;;;;;8.15;5.35;;;5.80;99.90;;;;;;5016322;28;20205;-83
2023/12/15 05:09:04;;;;;;;1.73;1.52;;;5.80;99.90;;;;;;5022931;28;20240;-82
2023/12/15 05:11:34;;;;;;;3.88;3.53;;;5.70;99.90;;;;;;5033307;28;20287;-83
2023/12/15 05:14:00;;;;;;;5.13;3.00;;;5.80;99.90;;;;;;5029013;28;20205;-81
2023/12/15 05:16:29;;;;;;;3.33;2.63;;;5.80;99.90;;;;;;5019929;28;20208;-82
2023/12/15 05:18:55;;;;;;;2.80;1.35;;;5.80;99.90;;;;;;5012825;28;20193;-82
2023/12/15 05:21:22;;;;;;;4.22;2.97;;;5.80;99.90;;;;;;5026208;28;20749;-81
2023/12/15 05:23:49;;;;;;;3.35;2.50;;;5.80;99.90;;;;;;5021736;28;20219;-82
2023/12/15 05:26:16;;;;;;;4.15;3.80;;;5.80;99.90;;;;;;4995516;28;20197;-82
2023/12/15 05:28:44;;;;;;;2.63;2.38;;;5.90;99.90;;;;;;4995209;28;20193;-82
2023/12/15 05:31:11;;;;;;;5.95;2.35;;;5.80;99.90;;;;;;4995312;28;20235;-81
2023/12/15 05:33:39;;;;;;;1.60;1.50;;;5.90;99.90;;;;;;4995551;28;20248;-82
2023/12/15 05:36:06;;;;;;;2.05;1.95;;;5.90;99.90;;;;;;4994895;28;20186;-80
2023/12/15 05:38:33;;;;;;;1.08;1.05;;;5.90;99.90;;;;;;4995824;28;20284;-80
2023/12/15 05:41:00;;;;;;;2.55;2.35;;;5.90;99.90;;;;;;4995334;28;20196;-80
2023/12/15 05:43:26;;;;;;;3.40;3.20;;;6.00;99.90;;;;;;4995683;28;20221;-82
2023/12/15 05:45:53;;;;;;;3.63;2.50;;;6.00;99.90;;;;;;5007104;28;20192;-81
2023/12/15 05:48:20;;;;;;;4.80;2.70;;;6.00;99.90;;;;;;5014796;28;20192;-80
2023/12/15 05:50:48;;;;;;;3.78;3.38;;;5.90;99.90;;;;;;5014448;28;20693;-81
2023/12/15 05:53:15;;;;;;;1.85;1.75;;;5.90;99.90;;;;;;5000729;28;20217;-81
2023/12/15 05:55:42;;;;;;;5.47;5.10;;;6.00;99.90;;;;;;4995532;28;20193;-80
2023/12/15 05:58:08;;;;;;;2.78;1.90;;;6.00;99.90;;;;;;5002964;28;20646;-80
2023/12/15 06:00:35;;;;;;;0.65;0.65;;;6.00;99.90;;;;;;5016175;28;20287;-81
2023/12/15 06:03:02;;;;;;;4.68;4.20;;;6.00;99.90;;;;;;5013510;28;20212;-81
2023/12/15 06:05:33;;;;;;;4.45;2.92;;;6.00;99.90;;;;;;4994908;28;20201;-80
2023/12/15 06:08:02;;;;;;;2.70;2.60;;;6.00;99.90;;;;;;5006741;28;20280;-81
2023/12/15 06:10:29;;;;;;;12.43;6.35;;;6.10;99.90;;;;;;4994966;28;20612;-81
2023/12/15 06:12:56;;;;;;;2.45;2.13;;;6.10;99.90;;;;;;4995474;28;20775;-83
2023/12/15 06:15:22;;;;;;;4.53;4.22;;;6.00;99.90;;;;;;4994679;28;20381;-81
2023/12/15 06:17:52;;;;;;;6.35;4.40;;;6.00;99.90;;;;;;5005914;28;20196;-81
2023/12/15 06:20:19;;;;;;;0.60;0.52;;;6.00;99.90;;;;;;5014417;28;20631;-80
2023/12/15 06:22:46;;;;;;;1.50;1.40;;;6.00;99.90;;;;;;5014112;28;20228;-81
2023/12/15 06:25:14;;;;;;;2.80;2.40;;;6.00;99.90;;;;;;5013123;28;20222;-81
2023/12/15 06:27:41;;;;;;;0.50;0.50;;;6.10;99.90;;;;;;5005085;28;20208;-81
2023/12/15 06:30:09;;;;;;;1.42;1.33;;;6.10;99.90;;;;;;4994436;28;20652;-82
2023/12/15 06:32:36;;;;;;;0.40;0.40;;;6.20;99.90;;;;;;4994754;28;20221;-82
2023/12/15 06:35:05;;;;;;;6.38;2.88;;;6.20;99.90;;;;;;4996105;28;20190;-80
2023/12/15 06:37:32;;;;;;;3.15;1.27;;;6.20;99.90;;;;;;4994887;28;20575;-80
2023/12/15 06:39:59;;;;;;;0.88;0.88;;;6.20;99.90;;;;;;4996618;28;20193;-81
2023/12/15 06:42:29;;;;;;;11.88;4.38;;;6.20;99.90;;;;;;4995849;28;20284;-81
2023/12/15 06:44:56;;;;;;;1.65;1.30;;;6.20;99.90;;;;;;4987266;28;20213;-81
2023/12/15 06:47:22;;;;;;;4.30;2.45;;;6.30;99.90;;;;;;4996767;28;20288;-81
2023/12/15 06:49:49;;;;;;;3.65;3.35;;;6.30;99.90;;;;;;4997634;28;20322;-80
2023/12/15 06:52:16;;;;;;;3.15;3.00;;;6.30;99.90;;;;;;4996909;28;20193;-80
2023/12/15 06:54:43;;;;;;;0.50;0.50;;;6.30;99.90;;;;;;4997831;28;20236;-82
2023/12/15 06:57:10;;;;;;;3.38;1.42;;;6.30;99.90;;;;;;4994496;28;20882;-82
2023/12/15 06:59:38;;;;;;;1.48;1.48;;;6.40;99.90;;;;;;4992951;28;20204;-81
2023/12/15 07:02:05;;;;;;;0.88;0.88;;;6.40;99.90;;;;;;4996305;28;20652;-80
2023/12/15 07:04:32;;;;;;;6.28;3.78;;;6.40;99.90;;;;;;4995107;28;20239;-80
2023/12/15 07:06:59;;;;;;;1.88;1.58;;;6.50;99.90;;;;;;4992595;28;20205;-81
2023/12/15 07:09:26;;;;;;;1.45;1.35;;;6.50;99.90;;;;;;4998715;28;20197;-81
2023/12/15 07:11:54;;;;;;;0.77;0.77;;;6.50;99.90;;;;;;5006557;28;20200;-81
2023/12/15 07:14:20;;;;;;;5.95;1.20;;;6.50;99.90;;;;;;4999267;28;20212;-80
2023/12/15 07:16:49;;;;;;;2.35;2.25;;;6.50;99.90;;;;;;5009809;28;20210;-81
2023/12/15 07:19:15;;;;;;;2.40;2.28;;;6.60;99.90;;;;;;5011658;28;20199;-81
2023/12/15 07:21:42;;;;;;;2.55;1.30;;;6.60;99.90;;;;;;5003228;28;20197;-82
2023/12/15 07:24:09;;;;;;;0.40;0.35;;;6.60;99.90;;;;;;5007111;28;20260;-81
2023/12/15 07:26:36;;;;;;;3.30;3.03;;;6.60;99.90;;;;;;5017453;28;20232;-81
2023/12/15 07:29:03;;;;;;;8.27;2.17;;;6.60;99.90;;;;;;5024034;28;20252;-80
2023/12/15 07:31:29;;;;;;;1.85;1.67;;;6.70;99.90;;;;;;5012459;28;20268;-80
2023/12/15 07:33:57;;;;;;;17.45;4.82;;;6.70;99.90;;;;;;5002984;28;20209;-81
2023/12/15 07:36:24;;;;;;;7.43;3.03;;;6.70;99.90;;;;;;5001206;28;20221;-81
2023/12/15 07:38:51;;;;;;;2.97;0.70;;;6.70;99.90;;;;;;5010811;28;20873;-82
2023/12/15 07:41:18;;;;;;;0.40;0.40;;;6.70;99.90;;;;;;5014178;28;20189;-80
2023/12/15 07:43:45;;;;;;;1.05;1.05;;;6.70;99.90;;;;;;5016234;28;20217;-82
2023/12/15 07:46:18;;;;;;;0.70;0.68;;;6.70;99.90;;;;;;5008704;28;20280;-82
2023/12/15 07:48:44;;;;;;;0.50;0.40;;;6.80;99.90;;;;;;5017003;28;20626;-82
2023/12/15 07:51:18;;;;;;;0.40;0.40;;;6.80;99.90;;;;;;5009253;28;20209;-83
2023/12/15 07:53:46;;;;;;;3.35;3.10;;;6.80;99.90;;;;;;5008102;28;20245;-82
2023/12/15 07:56:20;;;;;;;0.50;0.50;;;6.90;99.90;;;;;;5000209;28;20280;-83
2023/12/15 07:58:47;;;;;;;3.25;1.15;;;6.80;99.90;;;;;;5008952;28;20200;-83
2023/12/15 08:01:13;;;;;;;3.03;2.83;;;6.90;99.90;;;;;;5000177;28;20568;-82
2023/12/15 08:03:40;;;;;;;4.22;2.60;;;6.90;99.90;;;;;;5000785;28;20247;-83
2023/12/15 08:06:08;;;;;;;0.73;0.73;;;6.80;99.90;;;;;;5011822;28;20193;-80
2023/12/15 08:08:38;;;;;;;4.22;1.30;;;6.80;99.90;;;;;;5004504;28;20718;-81
2023/12/15 08:11:05;;;;;;;7.57;5.15;;;6.80;99.90;;;;;;4993423;28;20303;-82
2023/12/15 08:13:32;;;;;;;9.30;6.30;;;6.80;99.90;;;;;;5000330;28;20249;-82
2023/12/15 08:15:59;;;;;;;4.00;2.65;;;6.90;99.90;;;;;;5001483;28;20189;-81
2023/12/15 08:18:26;;;;;;;0.40;0.40;;;6.90;99.90;;;;;;5010774;28;20239;-81
2023/12/15 08:20:53;;;;;;;36.03;8.88;;;6.90;99.90;;;;;;5007387;28;20284;-82
2023/12/15 08:23:20;;;;;;;5.03;3.15;;;6.90;99.90;;;;;;5004363;28;20300;-82
2023/12/15 08:25:48;;;;;;;9.00;3.00;;;7.00;99.90;;;;;;5008096;28;20216;-82
2023/12/15 08:28:15;;;;;;;40.55;8.20;;;7.00;99.90;;;;;;5000099;28;20192;-82
2023/12/15 08:30:42;;;;;;;7.60;5.28;;;7.00;99.90;;;;;;5001255;28;20203;-82
2023/12/15 08:33:09;;;;;;;14.50;7.82;;;7.00;99.90;;;;;;5016618;28;20585;-82
2023/12/15 08:35:36;;;;;;;8.88;5.63;;;7.00;99.90;;;;;;5008533;28;20198;-82
2023/12/15 08:38:03;;;;;;;0.55;0.55;;;7.00;99.90;;;;;;5015536;28;20257;-81
2023/12/15 08:40:30;;;;;;;1.42;1.42;;;7.00;99.90;;;;;;5006172;28;20230;-81
2023/12/15 08:42:58;;;;;;;1.83;1.65;;;7.10;99.90;;;;;;5002094;28;20213;-82
2023/12/15 08:45:25;;;;;;;3.30;0.75;;;7.10;99.90;;;;;;5002433;28;20220;-82
2023/12/15 08:47:51;;;;;;;5.78;5.20;;;7.10;99.90;;;;;;5012604;28;20221;-84
2023/12/15 08:50:18;;;;;;;0.50;0.47;;;7.20;99.90;;;;;;5023876;28;20264;-81
2023/12/15 08:52:45;;;;;;;7.40;2.35;;;7.20;99.90;;;;;;5015570;28;20240;-82
2023/12/15 08:55:12;;;;;;;6.75;3.70;;;7.20;99.90;;;;;;4999193;28;20189;-82
2023/12/15 08:57:39;;;;;;;0.55;0.50;;;7.30;99.90;;;;;;4998889;28;20197;-81
2023/12/15 09:00:08;;;;;;;1.58;1.58;;;7.30;99.90;;;;;;4999205;28;20632;-82
2023/12/15 09:02:35;;;;;;;3.00;2.25;;;7.30;99.90;;;;;;4998663;28;20293;-82
2023/12/15 09:05:02;;;;;;;4.97;4.53;;;7.30;99.90;;;;;;4998214;28;20217;-81
2023/12/15 09:07:29;;;;;;;1.60;1.50;;;7.30;99.90;;;;;;5013311;28;20200;-81
2023/12/15 09:09:56;;;;;;;1.55;1.10;;;7.30;99.90;;;;;;5018249;28;20287;-81
2023/12/15 09:12:23;;;;;;;2.20;1.25;;;7.40;99.90;;;;;;5018402;28;20216;-82
2023/12/15 09:14:50;;;;;;;7.25;1.45;;;7.40;99.90;;;;;;5008625;28;20197;-82
2023/12/15 09:17:18;;;;;;;2.25;1.48;;;7.40;99.90;;;;;;4998745;28;20272;-81
2023/12/15 09:19:46;;;;;;;0.40;0.40;;;7.40;99.90;;;;;;4998050;28;20569;-82
2023/12/15 09:22:13;;;;;;;4.30;1.95;;;7.40;99.90;;;;;;4998008;28;20257;-82
2023/12/15 09:24:39;;;;;;;1.20;1.20;;;7.40;99.90;;;;;;4997929;28;20220;-82
2023/12/15 09:27:06;;;;;;;1.55;1.45;;;7.40;99.90;;;;;;5009238;28;20224;-81
2023/12/15 09:29:35;;;;;;;7.57;3.13;;;7.50;99.90;;;;;;5017340;28;20202;-82
2023/12/15 09:32:03;;;;;;;10.15;4.28;;;7.50;99.90;;;;;;5016609;28;20211;-78
2023/12/15 09:34:31;;;;;;;0.40;0.40;;;7.50;99.90;;;;;;5009060;28;20656;-82
2023/12/15 09:36:58;;;;;;;0.40;0.40;;;7.60;99.90;;;;;;5015958;28;20223;-80
2023/12/15 09:39:25;;;;;;;3.75;2.97;;;7.60;99.90;;;;;;5028646;28;20269;-81
2023/12/15 09:41:52;;;;;;;0.40;0.40;;;7.70;99.90;;;;;;5019488;28;20196;-82
2023/12/15 09:44:19;;;;;;;0.60;0.60;;;7.70;99.90;;;;;;5018077;28;20238;-80
2023/12/15 09:46:46;;;;;;;0.43;0.38;;;7.80;99.90;;;;;;5017116;28;20678;-81
2023/12/15 09:49:17;;;;;;;0.40;0.40;;;7.90;99.90;;;;;;5017669;28;20189;-78
2023/12/15 09:51:50;;;;;;;0.85;0.85;;;7.90;99.90;;;;;;5017537;28;20622;-82
2023/12/15 09:54:17;;;;;;;0.40;0.38;;;7.90;99.90;;;;;;5025208;28;20274;-80
2023/12/15 09:56:46;;;;;;;1.02;1.02;;;7.90;99.90;;;;;;5028842;28;20638;-82
2023/12/15 09:59:13;;;;;;;0.40;0.40;;;7.90;99.90;;;;;;4990198;28;20232;-81
2023/12/15 10:01:40;;;;;;;1.25;1.15;;;7.90;99.90;;;;;;4996797;28;20196;-82
2023/12/15 10:04:07;;;;;;;0.80;0.70;;;7.90;99.90;;;;;;5004666;28;20725;-82
2023/12/15 10:06:36;;;;;;;2.78;1.52;;;7.90;99.90;;;;;;4996306;28;20223;-82
2023/12/15 10:09:09;;;;;;;0.50;0.43;;;7.90;99.90;;;;;;5005142;28;20218;-82
2023/12/15 10:11:37;;;;;;;1.70;1.60;;;8.00;99.90;;;;;;4997405;28;20943;-82
2023/12/15 10:14:07;;;;;;;0.50;0.50;;;8.00;99.90;;;;;;4997129;28;20468;-82
2023/12/15 10:16:33;;;;;;;2.80;2.70;;;8.10;99.90;;;;;;4996685;28;20444;-82
2023/12/15 10:19:03;;;;;;;2.40;1.67;;;8.20;99.90;;;;;;4995901;28;20467;-81
2023/12/15 10:21:31;;;;;;;2.05;1.95;;;8.10;99.90;;;;;;5002172;28;20335;-82
2023/12/15 10:23:58;;;;;;;0.50;0.40;;;8.10;99.90;;;;;;5000703;28;20225;-82
2023/12/15 10:26:28;;;;;;;1.08;1.02;;;8.10;99.90;;;;;;5016783;28;20216;-83
2023/12/15 10:28:55;;;;;;;0.40;0.40;;;8.20;99.90;;;;;;5017243;28;20544;-81
2023/12/15 10:31:25;;;;;;;1.45;1.35;;;8.10;99.90;;;;;;5017293;28;20224;-81
2023/12/15 10:33:52;;;;;;;6.20;5.72;;;8.10;99.90;;;;;;5016312;28;20221;-82
2023/12/15 10:36:19;;;;;;;0.50;0.40;;;8.10;99.90;;;;;;4996893;28;20198;-82
2023/12/15 10:38:46;;;;;;;2.25;1.30;;;8.10;99.90;;;;;;4997940;28;20648;-82
2023/12/15 10:41:15;;;;;;;0.50;0.40;;;8.10;99.90;;;;;;5001509;28;20840;-83
2023/12/15 10:43:43;;;;;;;0.82;0.82;;;8.10;99.90;;;;;;5008269;28;20667;-80
2023/12/15 10:46:11;;;;;;;11.25;4.47;;;8.10;99.90;;;;;;5020589;28;20209;-79
2023/12/15 10:48:40;;;;;;;3.58;3.35;;;8.10;99.90;;;;;;5003583;28;20221;-82
2023/12/15 10:51:08;;;;;;;1.88;1.77;;;8.10;99.90;;;;;;5002464;28;20363;-81
2023/12/15 10:53:39;;;;;;;0.50;0.50;;;8.10;99.90;;;;;;5002861;28;20276;-82
2023/12/15 10:56:06;;;;;;;6.47;3.85;;;8.10;99.90;;;;;;5003385;28;20212;-82
2023/12/15 10:58:34;;;;;;;0.40;0.30;;;8.20;99.90;;;;;;5002228;28;20233;-80
2023/12/15 11:01:05;;;;;;;6.82;2.92;;;8.20;99.90;;;;;;5001557;28;20588;-80
2023/12/15 11:03:32;;;;;;;0.60;0.60;;;8.30;99.90;;;;;;5001559;28;20242;-81
2023/12/15 11:06:00;;;;;;;1.60;1.50;;;8.30;99.90;;;;;;5001416;28;20255;-82
2023/12/15 11:08:27;;;;;;;1.92;1.10;;;8.30;99.90;;;;;;5002507;28;20201;-82
2023/12/15 11:10:53;;;;;;;1.77;1.67;;;8.30;99.90;;;;;;5001294;28;20197;-82
2023/12/15 11:13:49;;;;;;;9.43;3.95;;;8.40;99.90;;;;;;4993750;28;20213;-82
2023/12/15 11:16:18;;;;;;;2.25;2.05;;;8.40;99.90;;;;;;5001943;28;20212;-83
2023/12/15 11:18:44;;;;;;;1.13;1.13;;;8.40;99.90;;;;;;5001222;28;20203;-82
2023/12/15 11:21:12;;;;;;;1.42;1.40;;;8.40;99.90;;;;;;5000917;28;20228;-79
2023/12/15 11:23:50;;;;;;;0.40;0.40;;;8.40;99.90;;;;;;5007497;28;20709;-84
2023/12/15 11:26:21;;;;;;;13.15;7.15;;;8.50;99.90;;;;;;5035962;28;20591;-82
2023/12/15 11:28:48;;;;;;;7.15;5.13;;;8.50;99.90;;;;;;5036054;28;20204;-80
2023/12/15 11:31:24;;;;;;;5.18;3.15;;;8.40;99.90;;;;;;5017983;28;20201;-81
2023/12/15 11:33:51;;;;;;;3.50;2.43;;;8.50;99.90;;;;;;5013481;28;20221;-82
2023/12/15 11:36:18;;;;;;;6.28;2.35;;;8.60;99.90;;;;;;5017367;28;20528;-81
2023/12/15 11:38:48;;;;;;;5.65;4.68;;;8.60;99.90;;;;;;5017322;28;20225;-81
2023/12/15 11:41:18;;;;;;;4.47;3.15;;;8.60;99.90;;;;;;5018064;28;20204;-82
2023/12/15 11:43:45;;;;;;;4.65;4.22;;;8.60;99.90;;;;;;5017774;28;20213;-82
2023/12/15 11:46:13;;;;;;;9.30;4.22;;;8.70;99.90;;;;;;5026676;28;20238;-80
2023/12/15 11:48:43;;;;;;;17.50;4.82;;;8.70;99.90;;;;;;5036585;28;20184;-81
2023/12/15 11:51:10;;;;;;;1.30;1.23;;;8.70;99.90;;;;;;5035136;28;20207;-82
2023/12/15 11:53:42;;;;;;;0.52;0.52;;;8.70;99.90;;;;;;5021558;28;20246;-82
2023/12/15 11:56:10;;;;;;;3.72;3.15;;;8.70;99.90;;;;;;5019420;28;20195;-81
2023/12/15 11:58:38;;;;;;;3.67;3.25;;;8.70;99.90;;;;;;5015016;28;20223;-81
2023/12/15 12:01:05;;;;;;;1.85;1.05;;;8.70;99.90;;;;;;5020613;28;20260;-82
2023/12/15 12:03:32;;;;;;;1.80;1.70;;;8.70;99.90;;;;;;5020635;28;20212;-83
2023/12/15 12:06:05;;;;;;;0.40;0.40;;;8.70;99.90;;;;;;5013455;28;20482;-82
2023/12/15 12:08:33;;;;;;;5.50;3.63;;;8.60;99.90;;;;;;4994281;28;20205;-82
2023/12/15 12:10:59;;;;;;;5.85;3.20;;;8.60;99.90;;;;;;5000827;28;20436;-83
2023/12/15 12:13:32;;;;;;;0.50;0.40;;;8.50;99.90;;;;;;5013677;28;20295;-82
2023/12/15 12:16:00;;;;;;;1.05;1.05;;;8.50;99.90;;;;;;5020719;28;20188;-82
2023/12/15 12:18:27;;;;;;;1.43;1.17;;;8.60;99.90;;;;;;5020522;28;20563;-82
2023/12/15 12:20:55;;;;;;;1.92;1.77;;;8.50;99.90;;;;;;5019963;28;20435;-82
2023/12/15 12:23:27;;;;;;;3.50;3.20;;;8.50;99.90;;;;;;5001330;28;20251;-83
2023/12/15 12:25:54;;;;;;;4.03;1.65;;;8.60;99.90;;;;;;5000568;28;20240;-82
2023/12/15 12:28:21;;;;;;;1.73;1.63;;;8.60;99.90;;;;;;5000473;28;20256;-82
2023/12/15 12:30:49;;;;;;;0.50;0.50;;;8.60;99.90;;;;;;5014579;28;20203;-83
2023/12/15 12:33:16;;;;;;;2.00;1.80;;;8.70;99.90;;;;;;5019633;28;20634;-81
2023/12/15 12:35:43;;;;;;;1.10;1.10;;;8.80;99.90;;;;;;5023590;28;20228;-81
2023/12/15 12:38:10;;;;;;;2.70;2.50;;;8.70;99.90;;;;;;5019949;28;20499;-80
2023/12/15 12:40:38;;;;;;;2.55;2.15;;;8.80;99.90;;;;;;5018255;28;20281;-81
2023/12/15 12:43:05;;;;;;;7.50;2.03;;;8.80;99.90;;;;;;5018802;28;20219;-81
2023/12/15 12:45:32;;;;;;;2.63;2.43;;;8.80;99.90;;;;;;5013042;28;20217;-82
2023/12/15 12:47:59;;;;;;;13.43;6.70;;;8.90;99.90;;;;;;4997180;28;20824;-82
2023/12/15 12:50:26;;;;;;;0.40;0.40;;;8.90;99.90;;;;;;4997886;28;20251;-81
2023/12/15 12:52:52;;;;;;;2.35;2.25;;;8.80;99.90;;;;;;4998557;28;20212;-81
2023/12/15 12:55:19;;;;;;;14.23;4.63;;;8.80;99.90;;;;;;4997899;28;20219;-82